Time;durP1;ratioP1;P1;durP2;ratioP2;P2;SDS_P1;SDS_P2;PMS_P1;PMS_P2;Temp;Humidity;BMP_temperature;BMP_pressure;BME280_temperature;BME280_humidity;BME280_pressure;Samples;Min_cycle;Max_cycle;Signal;HPM_P1;HPM_P2
2022/08/26 00:00:21;;;;;;;9.90;5.07;;;20.90;99.90;;;;;;5013375;28;20227;-80
2022/08/26 00:02:46;;;;;;;9.93;4.10;;;20.80;99.90;;;;;;5000319;28;20207;-82
2022/08/26 00:05:12;;;;;;;13.13;5.40;;;20.80;99.90;;;;;;5012184;28;20619;-82
2022/08/26 00:07:38;;;;;;;12.60;4.73;;;20.70;99.90;;;;;;5013301;28;20226;-82
2022/08/26 00:10:05;;;;;;;11.30;5.23;;;20.70;99.90;;;;;;5003626;28;20262;-81
2022/08/26 00:12:31;;;;;;;6.53;4.57;;;20.70;99.90;;;;;;5008817;28;20222;-83
2022/08/26 00:14:57;;;;;;;6.97;4.70;;;20.70;99.90;;;;;;5013015;28;20231;-80
2022/08/26 00:17:22;;;;;;;9.40;5.23;;;20.70;99.90;;;;;;5011800;28;20215;-82
2022/08/26 00:19:48;;;;;;;10.10;5.00;;;20.70;99.90;;;;;;4979825;28;20661;-82
2022/08/26 00:22:14;;;;;;;11.67;5.23;;;20.60;99.90;;;;;;4995360;28;20270;-82
2022/08/26 00:24:40;;;;;;;11.07;5.40;;;20.60;99.90;;;;;;5003518;28;20600;-82
2022/08/26 00:27:05;;;;;;;7.63;4.43;;;20.60;99.90;;;;;;4984151;28;20577;-81
2022/08/26 00:29:33;;;;;;;7.80;3.70;;;20.60;99.90;;;;;;5002399;28;20608;-82
2022/08/26 00:32:00;;;;;;;10.20;3.93;;;20.70;99.90;;;;;;5012192;28;20223;-80
2022/08/26 00:34:26;;;;;;;11.70;4.67;;;20.70;99.90;;;;;;5012757;28;20215;-81
2022/08/26 00:36:51;;;;;;;2.90;2.60;;;20.70;99.90;;;;;;5012538;28;20272;-81
2022/08/26 00:39:18;;;;;;;7.30;3.67;;;20.70;99.90;;;;;;5007514;28;20219;-82
2022/08/26 00:41:44;;;;;;;7.77;3.13;;;20.70;99.90;;;;;;5006844;28;20303;-81
2022/08/26 00:44:10;;;;;;;3.90;2.53;;;20.70;99.90;;;;;;4990307;28;20363;-81
2022/08/26 00:46:40;;;;;;;6.80;2.60;;;20.60;99.90;;;;;;4993062;28;20278;-81
2022/08/26 00:49:20;;;;;;;4.27;2.60;;;20.60;99.90;;;;;;4991493;28;20282;-81
2022/08/26 00:51:53;;;;;;;4.63;2.20;;;20.60;99.90;;;;;;4984713;28;20673;-82
2022/08/26 00:54:26;;;;;;;5.00;2.57;;;20.60;99.90;;;;;;4999787;28;20247;-81
2022/08/26 00:56:59;;;;;;;5.07;1.87;;;20.50;99.90;;;;;;5010903;28;20219;-82
2022/08/26 00:59:25;;;;;;;5.57;2.40;;;20.50;99.90;;;;;;5012325;28;20756;-81
2022/08/26 01:01:51;;;;;;;5.10;1.97;;;20.40;99.90;;;;;;5003330;28;20222;-81
2022/08/26 01:04:19;;;;;;;3.23;1.80;;;20.40;99.90;;;;;;5010452;28;20211;-81
2022/08/26 01:06:47;;;;;;;2.33;1.90;;;20.40;99.90;;;;;;5013958;28;20239;-81
2022/08/26 01:09:14;;;;;;;2.43;1.60;;;20.40;99.90;;;;;;5011850;28;20591;-81
2022/08/26 01:11:40;;;;;;;2.40;1.80;;;20.40;99.90;;;;;;5011959;28;20219;-82
2022/08/26 01:14:07;;;;;;;5.87;1.87;;;20.30;99.90;;;;;;5012079;28;20641;-82
2022/08/26 01:16:34;;;;;;;5.13;1.83;;;20.30;99.90;;;;;;5007997;28;20264;-81
2022/08/26 01:19:16;;;;;;;2.97;1.23;;;20.20;99.90;;;;;;5011657;28;20696;-82
2022/08/26 01:21:57;;;;;;;4.20;1.37;;;20.20;99.90;;;;;;5008928;28;20657;-81
2022/08/26 01:24:26;;;;;;;7.10;1.40;;;20.20;99.90;;;;;;5010782;28;20278;-82
2022/08/26 01:26:57;;;;;;;4.43;1.47;;;20.20;99.90;;;;;;5010236;28;20235;-82
2022/08/26 01:29:24;;;;;;;1.97;1.13;;;20.20;99.90;;;;;;5011717;28;20675;-81
2022/08/26 01:31:56;;;;;;;0.70;0.70;;;20.20;99.90;;;;;;4994784;28;20657;-81
2022/08/26 01:34:28;;;;;;;1.90;1.00;;;20.20;99.90;;;;;;5011600;28;20222;-81
2022/08/26 01:37:01;;;;;;;3.50;1.00;;;20.20;99.90;;;;;;5003913;28;20224;-83
2022/08/26 01:39:27;;;;;;;3.47;1.23;;;20.20;99.90;;;;;;5010083;28;20703;-81
2022/08/26 01:41:55;;;;;;;2.27;1.00;;;20.20;99.90;;;;;;5006637;28;20223;-82
2022/08/26 01:44:24;;;;;;;1.30;1.20;;;20.20;99.90;;;;;;4990891;28;20173;-81
2022/08/26 01:46:52;;;;;;;2.63;1.30;;;20.20;99.90;;;;;;5010569;28;20569;-82
2022/08/26 01:49:19;;;;;;;5.37;1.80;;;20.10;99.90;;;;;;5011737;28;20227;-81
2022/08/26 01:51:48;;;;;;;2.20;0.97;;;20.10;99.90;;;;;;5011684;28;20211;-82
2022/08/26 01:54:14;;;;;;;1.30;0.77;;;20.10;99.90;;;;;;5011442;28;20250;-80
2022/08/26 01:56:40;;;;;;;3.20;1.57;;;20.20;99.90;;;;;;5010395;28;20665;-81
2022/08/26 01:59:09;;;;;;;3.93;1.57;;;20.20;99.90;;;;;;4986190;28;20184;-81
2022/08/26 02:01:36;;;;;;;13.23;2.53;;;20.20;99.90;;;;;;5010209;28;20650;-80
2022/08/26 02:04:12;;;;;;;1.17;0.80;;;20.20;99.90;;;;;;5011199;28;20227;-81
2022/08/26 02:06:38;;;;;;;4.40;2.10;;;20.10;99.90;;;;;;5011877;28;20239;-80
2022/08/26 02:09:05;;;;;;;4.10;1.07;;;20.10;99.90;;;;;;4985708;28;20758;-81
2022/08/26 02:11:32;;;;;;;2.83;0.93;;;20.10;99.90;;;;;;5007157;28;20189;-81
2022/08/26 02:14:01;;;;;;;3.83;1.23;;;20.10;99.90;;;;;;5013833;28;20246;-82
2022/08/26 02:16:32;;;;;;;6.20;1.07;;;20.10;99.90;;;;;;5009935;28;20951;-81
2022/08/26 02:19:00;;;;;;;8.17;2.70;;;20.10;99.90;;;;;;5011231;28;20223;-80
2022/08/26 02:21:26;;;;;;;1.40;0.87;;;20.10;99.90;;;;;;5011240;28;20243;-80
2022/08/26 02:23:52;;;;;;;1.83;1.37;;;20.10;99.90;;;;;;5005808;28;20264;-81
2022/08/26 02:26:21;;;;;;;4.27;1.10;;;20.10;99.90;;;;;;4990610;28;20318;-81
2022/08/26 02:28:55;;;;;;;1.37;0.90;;;20.10;99.90;;;;;;5011560;28;20223;-81
2022/08/26 02:31:21;;;;;;;12.97;1.87;;;20.10;99.90;;;;;;5019087;28;20216;-81
2022/08/26 02:33:47;;;;;;;3.70;1.20;;;20.10;99.90;;;;;;5010887;28;20325;-81
2022/08/26 02:36:20;;;;;;;6.10;1.17;;;20.10;99.90;;;;;;5010922;28;20323;-81
2022/08/26 02:38:45;;;;;;;3.80;0.87;;;20.10;99.90;;;;;;5007289;28;20211;-81
2022/08/26 02:41:11;;;;;;;4.03;0.87;;;20.10;99.90;;;;;;5011562;28;20286;-81
2022/08/26 02:43:37;;;;;;;2.97;1.00;;;20.10;99.90;;;;;;4988298;28;20693;-80
2022/08/26 02:46:03;;;;;;;2.40;0.90;;;20.20;99.90;;;;;;4973646;28;20278;-84
2022/08/26 02:48:29;;;;;;;0.90;0.80;;;20.10;99.90;;;;;;4991586;28;20226;-80
2022/08/26 02:50:57;;;;;;;1.33;0.50;;;20.10;99.90;;;;;;4982524;28;20230;-80
2022/08/26 02:53:22;;;;;;;2.53;0.80;;;20.10;99.90;;;;;;4993395;28;20286;-80
2022/08/26 02:55:48;;;;;;;1.97;1.03;;;20.10;99.90;;;;;;5014802;28;20711;-80
2022/08/26 02:58:15;;;;;;;4.83;1.70;;;20.10;99.90;;;;;;5014455;28;20220;-82
2022/08/26 03:00:41;;;;;;;4.50;1.67;;;20.10;99.90;;;;;;5014341;28;20242;-82
2022/08/26 03:03:07;;;;;;;7.50;0.90;;;20.10;99.90;;;;;;5014447;28;20215;-81
2022/08/26 03:05:33;;;;;;;3.27;1.20;;;20.10;99.90;;;;;;5012991;28;20640;-81
2022/08/26 03:08:00;;;;;;;3.13;0.63;;;20.10;99.90;;;;;;5013449;28;20191;-80
2022/08/26 03:10:26;;;;;;;6.90;1.47;;;20.10;99.90;;;;;;5014155;28;20302;-80
2022/08/26 03:12:52;;;;;;;2.53;1.37;;;20.10;99.90;;;;;;5014302;28;20227;-82
2022/08/26 03:15:18;;;;;;;1.13;0.67;;;20.10;99.90;;;;;;5014231;28;20312;-81
2022/08/26 03:17:45;;;;;;;1.93;1.50;;;20.10;99.90;;;;;;5014302;28;20220;-81
2022/08/26 03:20:11;;;;;;;2.93;1.73;;;20.10;99.90;;;;;;5013481;28;20203;-81
2022/08/26 03:22:38;;;;;;;6.30;1.63;;;20.10;99.90;;;;;;5014319;28;20577;-79
2022/08/26 03:25:07;;;;;;;3.00;0.97;;;20.00;99.90;;;;;;5013690;28;20539;-79
2022/08/26 03:27:33;;;;;;;2.77;0.90;;;20.10;99.90;;;;;;5014205;28;20257;-81
2022/08/26 03:32:43;;;;;;;2.70;1.00;;;20.00;99.90;;;;;;5008482;28;20219;-80
2022/08/26 03:35:10;;;;;;;3.10;0.77;;;20.00;99.90;;;;;;5013259;28;20202;-80
2022/08/26 03:37:37;;;;;;;2.53;1.30;;;20.00;99.90;;;;;;5018581;28;20235;-82
2022/08/26 03:40:04;;;;;;;1.07;0.83;;;20.00;99.90;;;;;;5000925;28;20216;-80
2022/08/26 03:42:30;;;;;;;2.50;1.20;;;20.00;99.90;;;;;;5009580;28;20284;-80
2022/08/26 03:44:56;;;;;;;2.63;0.73;;;20.00;99.90;;;;;;5000554;28;20223;-80
2022/08/26 03:47:21;;;;;;;4.90;0.93;;;20.00;99.90;;;;;;5004478;28;20199;-81
2022/08/26 03:49:47;;;;;;;5.70;0.97;;;20.00;99.90;;;;;;5013143;28;20518;-80
2022/08/26 03:52:13;;;;;;;11.57;1.67;;;20.00;99.90;;;;;;5013233;28;20219;-80
2022/08/26 03:54:40;;;;;;;4.60;1.23;;;20.00;99.90;;;;;;5013603;28;20234;-80
2022/08/26 03:57:05;;;;;;;2.60;1.10;;;20.00;99.90;;;;;;5005948;28;20693;-81
2022/08/26 03:59:31;;;;;;;3.70;1.20;;;20.10;99.90;;;;;;4995675;28;20184;-80
2022/08/26 04:01:57;;;;;;;6.50;1.40;;;20.10;99.90;;;;;;5013942;28;20633;-79
2022/08/26 04:04:22;;;;;;;4.17;0.90;;;20.10;99.90;;;;;;5007737;28;20208;-82
2022/08/26 04:06:48;;;;;;;3.33;1.67;;;20.00;99.90;;;;;;5011808;28;20274;-80
2022/08/26 04:09:18;;;;;;;4.87;1.20;;;20.00;99.90;;;;;;4995718;28;20300;-81
2022/08/26 04:11:45;;;;;;;1.37;1.07;;;20.00;99.90;;;;;;5008717;28;20700;-80
2022/08/26 04:14:15;;;;;;;6.37;0.90;;;20.00;99.90;;;;;;4992738;28;20194;-80
2022/08/26 04:16:42;;;;;;;1.20;1.10;;;19.90;99.90;;;;;;5011497;28;20227;-80
2022/08/26 04:19:09;;;;;;;6.93;1.27;;;19.90;99.90;;;;;;5012850;28;20207;-81
2022/08/26 04:21:37;;;;;;;2.73;1.20;;;19.90;99.90;;;;;;5011717;28;20281;-81
2022/08/26 04:24:04;;;;;;;1.53;0.97;;;19.90;99.90;;;;;;5010853;28;20230;-81
2022/08/26 04:26:38;;;;;;;4.23;1.03;;;19.80;99.90;;;;;;5012943;28;20231;-81
2022/08/26 04:29:08;;;;;;;4.20;1.13;;;19.80;99.90;;;;;;5008340;28;20183;-80
2022/08/26 04:31:35;;;;;;;4.70;2.20;;;19.90;99.90;;;;;;5011862;28;20226;-80
2022/08/26 04:34:01;;;;;;;3.07;0.90;;;19.90;99.90;;;;;;5013182;28;20219;-80
2022/08/26 04:36:27;;;;;;;5.07;1.87;;;19.90;99.90;;;;;;5005770;28;20227;-80
2022/08/26 04:38:53;;;;;;;3.73;1.53;;;19.90;99.90;;;;;;5011260;28;20219;-80
2022/08/26 04:41:19;;;;;;;1.17;1.03;;;19.90;99.90;;;;;;5012290;28;20253;-80
2022/08/26 04:43:47;;;;;;;10.87;1.43;;;19.90;99.90;;;;;;5011994;28;20199;-80
2022/08/26 04:46:18;;;;;;;7.63;1.20;;;19.90;99.90;;;;;;5012079;28;20230;-79
2022/08/26 04:48:43;;;;;;;2.23;1.00;;;19.80;99.90;;;;;;5012337;28;20227;-80
2022/08/26 04:51:10;;;;;;;2.73;1.20;;;19.80;99.90;;;;;;4994809;28;20280;-81
2022/08/26 04:53:36;;;;;;;3.67;1.27;;;19.70;99.90;;;;;;4999275;28;20702;-82
2022/08/26 04:56:03;;;;;;;2.50;1.03;;;19.70;99.90;;;;;;4991106;28;20684;-82
2022/08/26 04:58:28;;;;;;;7.30;1.00;;;19.60;99.90;;;;;;4991442;28;20586;-81
2022/08/26 05:00:55;;;;;;;5.43;0.97;;;19.60;99.90;;;;;;5001416;28;20212;-81
2022/08/26 05:03:22;;;;;;;4.47;1.40;;;19.60;99.90;;;;;;5012212;28;20284;-80
2022/08/26 05:05:49;;;;;;;3.77;1.00;;;19.50;99.90;;;;;;5009064;28;20597;-81
2022/08/26 05:08:17;;;;;;;6.93;1.70;;;19.60;99.90;;;;;;4991680;28;20192;-81
2022/08/26 05:10:47;;;;;;;0.80;0.80;;;19.50;99.90;;;;;;4992760;28;20227;-81
2022/08/26 05:13:16;;;;;;;2.27;0.90;;;19.50;99.90;;;;;;5007682;28;20215;-80
2022/08/26 05:15:43;;;;;;;7.50;1.20;;;19.50;99.90;;;;;;5010259;28;20301;-80
2022/08/26 05:18:10;;;;;;;1.30;0.80;;;19.60;99.90;;;;;;5011929;28;20227;-80
2022/08/26 05:20:42;;;;;;;5.20;1.27;;;19.50;99.90;;;;;;5012073;28;20593;-80
2022/08/26 05:23:07;;;;;;;0.70;0.70;;;19.50;99.90;;;;;;5012036;28;20671;-81
2022/08/26 05:25:40;;;;;;;6.93;1.10;;;19.50;99.90;;;;;;5007729;28;20223;-80
2022/08/26 05:28:07;;;;;;;5.53;1.20;;;19.60;99.90;;;;;;5005366;28;20279;-81
2022/08/26 05:30:34;;;;;;;3.43;0.73;;;19.60;99.90;;;;;;5007713;28;20583;-82
2022/08/26 05:33:00;;;;;;;2.43;0.67;;;19.60;99.90;;;;;;5007681;28;20221;-81
2022/08/26 05:35:30;;;;;;;7.47;1.03;;;19.60;99.90;;;;;;4994098;28;20731;-80
2022/08/26 05:38:02;;;;;;;5.50;0.63;;;19.60;99.90;;;;;;5008498;28;20198;-81
2022/08/26 05:40:28;;;;;;;0.93;0.70;;;19.70;99.90;;;;;;5008298;28;20231;-81
2022/08/26 05:42:53;;;;;;;3.30;0.60;;;19.70;99.90;;;;;;5007548;28;20224;-82
2022/08/26 05:45:22;;;;;;;3.00;1.03;;;19.70;99.90;;;;;;4997109;28;20223;-81
2022/08/26 05:47:49;;;;;;;2.13;0.97;;;19.70;99.90;;;;;;4998149;28;20278;-82
2022/08/26 05:50:20;;;;;;;7.70;1.17;;;19.60;99.90;;;;;;4979714;28;20654;-80
2022/08/26 05:52:47;;;;;;;1.63;0.80;;;19.70;99.90;;;;;;4987189;28;20238;-81
2022/08/26 05:55:13;;;;;;;0.90;0.80;;;19.80;99.90;;;;;;5011427;28;20219;-80
2022/08/26 05:57:38;;;;;;;2.63;0.80;;;19.80;99.90;;;;;;4993673;28;20219;-80
2022/08/26 06:00:04;;;;;;;0.30;0.30;;;19.80;99.90;;;;;;5011606;28;20215;-80
2022/08/26 06:02:30;;;;;;;5.17;1.00;;;19.70;99.90;;;;;;5010878;28;20191;-80
2022/08/26 06:04:56;;;;;;;0.97;0.67;;;19.60;99.90;;;;;;5007464;28;20346;-79
2022/08/26 06:08:09;;;;;;;3.30;0.90;;;19.60;99.90;;;;;;5010027;28;20226;-80
2022/08/26 06:10:12;;;;;;;2.07;0.90;;;19.70;99.90;;;;;;5009649;28;20222;-81
2022/08/26 06:12:38;;;;;;;0.47;0.47;;;19.70;99.90;;;;;;5011306;28;20578;-81
2022/08/26 06:15:04;;;;;;;1.03;1.03;;;19.80;99.90;;;;;;5001144;28;20220;-83
2022/08/26 06:17:30;;;;;;;5.93;1.37;;;19.80;99.90;;;;;;5005852;28;20184;-82
2022/08/26 06:19:57;;;;;;;3.50;0.73;;;19.70;99.90;;;;;;4994250;28;20184;-81
2022/08/26 06:27:51;;;;;;;2.73;1.07;;;19.70;99.90;;;;;;5008004;28;20684;-83
2022/08/26 06:30:17;;;;;;;4.63;0.83;;;19.70;99.90;;;;;;4992606;28;20228;-82
2022/08/26 06:32:44;;;;;;;6.10;1.03;;;19.70;99.90;;;;;;5010084;28;20233;-82
2022/08/26 06:35:10;;;;;;;2.23;0.50;;;19.80;99.90;;;;;;4994932;28;20357;-84
2022/08/26 06:37:36;;;;;;;3.10;0.60;;;19.80;99.90;;;;;;5009434;28;20553;-81
2022/08/26 06:40:03;;;;;;;1.90;1.60;;;19.90;99.90;;;;;;5013267;28;20245;-83
2022/08/26 06:42:29;;;;;;;4.23;0.90;;;19.90;99.90;;;;;;4992629;28;20598;-82
2022/08/26 06:44:55;;;;;;;4.43;1.07;;;20.00;99.90;;;;;;4970033;28;20689;-82
2022/08/26 06:47:21;;;;;;;1.80;0.70;;;20.00;99.90;;;;;;4993650;28;20270;-80
2022/08/26 06:49:47;;;;;;;2.30;1.07;;;20.00;99.90;;;;;;5014029;28;20653;-82
2022/08/26 06:52:12;;;;;;;0.93;0.50;;;19.90;99.90;;;;;;5009377;28;20219;-83
2022/08/26 06:54:41;;;;;;;2.13;0.53;;;20.00;99.90;;;;;;5017189;28;20598;-84
2022/08/26 06:57:08;;;;;;;2.43;1.00;;;20.10;99.90;;;;;;5005697;28;20283;-82
2022/08/26 06:59:34;;;;;;;4.27;0.60;;;20.10;99.90;;;;;;4967604;28;20197;-83
2022/08/26 07:02:01;;;;;;;2.90;1.13;;;20.10;99.90;;;;;;5013731;28;20600;-81
2022/08/26 07:04:28;;;;;;;2.90;1.30;;;20.10;99.90;;;;;;5014310;28;20310;-81
2022/08/26 07:06:54;;;;;;;1.60;0.87;;;20.10;99.90;;;;;;5015203;28;20235;-83
2022/08/26 07:09:23;;;;;;;2.47;1.10;;;20.20;99.90;;;;;;5008739;28;20227;-82
2022/08/26 07:11:50;;;;;;;3.87;0.97;;;20.10;99.90;;;;;;5012795;28;20215;-81
2022/08/26 07:14:17;;;;;;;2.37;0.70;;;20.10;99.90;;;;;;4997070;28;20241;-83
2022/08/26 07:16:43;;;;;;;3.30;0.47;;;20.00;99.90;;;;;;4988841;28;20215;-81
2022/08/26 07:19:09;;;;;;;1.30;0.77;;;19.90;99.90;;;;;;5008412;28;20227;-83
2022/08/26 07:21:35;;;;;;;4.07;1.00;;;20.00;99.90;;;;;;5013881;28;20563;-82
2022/08/26 07:24:02;;;;;;;0.40;0.40;;;20.00;99.90;;;;;;5010362;28;20234;-81
2022/08/26 07:26:29;;;;;;;1.20;0.60;;;19.90;99.90;;;;;;5008747;28;20242;-82
2022/08/26 07:28:57;;;;;;;1.40;0.63;;;19.80;99.90;;;;;;5005594;28;20188;-82
2022/08/26 07:31:25;;;;;;;0.77;0.40;;;19.60;99.90;;;;;;5013629;28;20219;-82
2022/08/26 07:33:51;;;;;;;7.00;1.17;;;19.70;99.90;;;;;;5013939;28;20676;-81
2022/08/26 07:36:19;;;;;;;4.90;1.00;;;19.60;99.90;;;;;;5013538;28;20640;-82
2022/08/26 07:38:46;;;;;;;0.50;0.50;;;19.60;99.90;;;;;;5013365;28;20211;-82
2022/08/26 07:41:14;;;;;;;6.07;1.07;;;19.50;99.90;;;;;;5014136;28;20192;-81
2022/08/26 07:43:40;;;;;;;2.73;0.87;;;19.50;99.90;;;;;;5012333;28;20235;-82
2022/08/26 07:46:06;;;;;;;6.13;0.90;;;19.60;99.90;;;;;;5012329;28;20231;-85
2022/08/26 07:48:33;;;;;;;7.47;0.97;;;19.40;99.90;;;;;;5011516;28;20698;-82
2022/08/26 07:50:59;;;;;;;3.60;0.77;;;19.40;99.90;;;;;;5014044;28;20227;-83
2022/08/26 07:53:25;;;;;;;17.20;1.30;;;19.40;99.90;;;;;;4979794;28;20773;-82
2022/08/26 07:55:50;;;;;;;2.37;0.80;;;19.40;99.90;;;;;;5014012;28;20278;-82
2022/08/26 07:58:16;;;;;;;6.53;0.70;;;19.40;99.90;;;;;;5012291;28;20689;-82
2022/08/26 08:00:43;;;;;;;1.87;0.50;;;19.40;99.90;;;;;;5012261;28;20578;-82
2022/08/26 08:03:08;;;;;;;0.77;0.77;;;19.30;99.90;;;;;;5013616;28;20215;-82
2022/08/26 08:05:35;;;;;;;3.13;0.93;;;19.30;99.90;;;;;;5012788;28;20266;-85
2022/08/26 08:08:04;;;;;;;1.50;0.93;;;19.40;99.90;;;;;;5004427;28;20673;-83
2022/08/26 08:10:31;;;;;;;1.90;0.50;;;19.30;99.90;;;;;;5011838;28;20354;-83
2022/08/26 08:12:57;;;;;;;7.77;1.27;;;19.30;99.90;;;;;;5012844;28;20227;-83
2022/08/26 08:15:27;;;;;;;3.97;0.77;;;19.40;99.90;;;;;;5011726;28;20668;-84
2022/08/26 08:17:54;;;;;;;5.77;1.20;;;19.30;99.90;;;;;;5013155;28;20242;-83
2022/08/26 08:20:20;;;;;;;3.40;0.87;;;19.30;99.90;;;;;;5006143;28;20676;-84
2022/08/26 08:22:47;;;;;;;1.33;0.87;;;19.40;99.90;;;;;;5008112;28;20535;-84
2022/08/26 08:25:13;;;;;;;1.83;1.07;;;19.40;99.90;;;;;;5011840;28;20710;-85
2022/08/26 08:27:41;;;;;;;1.80;1.07;;;19.50;99.90;;;;;;5019983;28;20242;-85
2022/08/26 08:30:08;;;;;;;5.00;0.90;;;19.50;99.90;;;;;;5012959;28;20223;-84
2022/08/26 08:32:37;;;;;;;0.33;0.33;;;19.50;99.90;;;;;;5012817;28;20225;-83
2022/08/26 08:35:03;;;;;;;2.37;0.80;;;19.50;99.90;;;;;;4996116;28;20195;-84
2022/08/26 08:37:29;;;;;;;1.97;0.57;;;19.50;99.90;;;;;;5012668;28;20219;-84
2022/08/26 08:39:55;;;;;;;0.53;0.53;;;19.50;99.90;;;;;;4997226;28;20673;-83
2022/08/26 08:42:44;;;;;;;1.20;0.97;;;19.60;99.90;;;;;;5005865;28;20247;-84
2022/08/26 08:45:15;;;;;;;4.20;1.40;;;19.50;99.90;;;;;;5006307;28;20227;-84
2022/08/26 08:47:54;;;;;;;1.53;0.50;;;19.50;99.90;;;;;;5010981;28;20595;-83
2022/08/26 08:50:35;;;;;;;4.23;0.80;;;19.50;99.90;;;;;;5010219;28;20183;-82
2022/08/26 08:53:13;;;;;;;7.00;1.03;;;19.50;99.90;;;;;;5010947;28;20186;-82
2022/08/26 08:55:48;;;;;;;3.40;0.80;;;19.60;99.90;;;;;;5012494;28;20226;-83
2022/08/26 08:58:27;;;;;;;6.20;1.17;;;19.70;99.90;;;;;;5012496;28;20694;-82
2022/08/26 09:01:00;;;;;;;3.60;0.93;;;19.70;99.90;;;;;;5002897;28;20224;-81
2022/08/26 09:03:52;;;;;;;4.13;0.50;;;19.80;99.90;;;;;;5010691;28;20216;-81
2022/08/26 09:06:19;;;;;;;2.03;0.77;;;19.80;99.90;;;;;;4964365;28;20262;-81
2022/08/26 09:08:48;;;;;;;0.77;0.63;;;19.70;99.90;;;;;;5004399;28;20258;-82
2022/08/26 09:11:15;;;;;;;2.87;0.60;;;19.60;99.90;;;;;;5002069;28;20245;-81
2022/08/26 09:13:50;;;;;;;1.20;0.53;;;19.60;99.90;;;;;;5003057;28;20230;-82
2022/08/26 09:16:36;;;;;;;1.50;0.33;;;19.70;99.90;;;;;;5002768;28;20215;-84
2022/08/26 09:19:22;;;;;;;2.20;0.40;;;19.70;99.90;;;;;;5006200;28;20219;-83
2022/08/26 09:21:59;;;;;;;0.30;0.30;;;19.80;99.90;;;;;;5008388;28;20250;-83
2022/08/26 09:24:28;;;;;;;1.63;0.97;;;19.70;99.90;;;;;;5009179;28;20665;-83
2022/08/26 09:26:56;;;;;;;0.47;0.47;;;19.70;99.90;;;;;;5011695;28;20365;-84
2022/08/26 09:29:29;;;;;;;1.90;0.60;;;19.70;99.90;;;;;;5011432;28;20188;-83
2022/08/26 09:32:18;;;;;;;1.67;0.63;;;19.80;99.90;;;;;;5011470;28;20191;-82
2022/08/26 09:34:53;;;;;;;1.07;1.07;;;19.90;99.90;;;;;;5009194;28;20215;-83
2022/08/26 09:37:37;;;;;;;2.43;0.77;;;20.00;99.90;;;;;;5010566;28;20253;-83
2022/08/26 09:40:16;;;;;;;2.13;0.63;;;20.10;99.90;;;;;;5008575;28;20214;-83
2022/08/26 09:42:42;;;;;;;5.30;0.97;;;20.10;99.90;;;;;;5002193;28;20513;-83
2022/08/26 09:45:13;;;;;;;4.80;0.83;;;20.00;99.90;;;;;;4983069;28;20678;-83
2022/08/26 09:47:44;;;;;;;2.03;1.47;;;19.90;99.90;;;;;;4982651;28;20204;-82
2022/08/26 09:50:28;;;;;;;4.47;1.47;;;19.80;99.90;;;;;;4991026;28;20645;-83
2022/08/26 09:53:16;;;;;;;0.60;0.60;;;19.70;99.90;;;;;;5001509;28;20282;-82
2022/08/26 09:55:44;;;;;;;2.07;0.63;;;19.70;99.90;;;;;;5007457;28;20293;-81
2022/08/26 09:58:33;;;;;;;2.30;0.53;;;19.70;99.90;;;;;;5008888;28;20661;-81
2022/08/26 10:01:04;;;;;;;0.80;0.80;;;19.90;99.90;;;;;;5011361;28;20219;-83
2022/08/26 10:03:34;;;;;;;1.30;0.90;;;19.70;99.90;;;;;;5014654;28;20227;-82
2022/08/26 10:06:12;;;;;;;3.33;1.03;;;19.70;99.90;;;;;;5006790;28;20723;-83
2022/08/26 10:08:42;;;;;;;1.83;0.60;;;19.60;99.90;;;;;;5008580;28;20221;-83
2022/08/26 10:11:27;;;;;;;2.40;0.90;;;19.60;99.90;;;;;;5017145;28;20193;-82
2022/08/26 10:14:01;;;;;;;7.27;1.03;;;19.70;99.90;;;;;;5004960;28;20552;-82
2022/08/26 10:16:38;;;;;;;1.27;0.60;;;19.80;99.90;;;;;;5010797;28;20231;-83
2022/08/26 10:19:10;;;;;;;0.63;0.63;;;19.90;99.90;;;;;;4995912;28;20266;-83
2022/08/26 10:22:02;;;;;;;3.87;0.90;;;19.90;99.90;;;;;;5000593;28;20230;-84
2022/08/26 10:24:41;;;;;;;1.20;0.50;;;19.90;99.90;;;;;;5005023;28;20219;-82
2022/08/26 10:27:20;;;;;;;3.83;0.80;;;19.90;99.90;;;;;;5007381;28;20565;-81
2022/08/26 10:29:49;;;;;;;2.97;1.27;;;19.90;99.90;;;;;;4999908;28;20302;-82
2022/08/26 10:32:36;;;;;;;1.40;0.70;;;20.00;99.90;;;;;;5011729;28;20546;-82
2022/08/26 10:35:05;;;;;;;0.93;0.70;;;20.10;99.90;;;;;;4982610;28;20228;-83
2022/08/26 10:37:38;;;;;;;1.27;0.63;;;20.10;99.90;;;;;;5004776;28;20419;-81
2022/08/26 10:40:16;;;;;;;2.63;1.23;;;20.10;99.90;;;;;;5010068;28;20305;-82
2022/08/26 10:42:56;;;;;;;4.37;1.17;;;20.10;99.90;;;;;;5001156;28;20226;-83
2022/08/26 10:45:26;;;;;;;2.40;0.77;;;20.10;99.90;;;;;;4999835;28;20227;-83
2022/08/26 10:47:58;;;;;;;9.23;1.00;;;20.30;99.90;;;;;;5009935;28;20264;-83
2022/08/26 10:50:31;;;;;;;0.70;0.70;;;20.10;99.90;;;;;;5011066;28;20191;-83
2022/08/26 10:53:05;;;;;;;2.07;0.57;;;20.10;99.90;;;;;;5019890;28;20186;-82
2022/08/26 10:56:06;;;;;;;0.83;0.80;;;20.20;99.90;;;;;;5010671;28;20339;-82
2022/08/26 10:59:08;;;;;;;0.60;0.60;;;20.30;99.90;;;;;;5006967;28;20278;-82
2022/08/26 11:01:58;;;;;;;2.83;0.70;;;20.30;99.90;;;;;;5019145;28;20208;-82
2022/08/26 11:04:42;;;;;;;0.57;0.50;;;20.20;99.90;;;;;;5006751;28;20219;-82
2022/08/26 11:07:36;;;;;;;1.17;0.67;;;20.20;99.90;;;;;;5006732;28;20271;-81
2022/08/26 11:10:11;;;;;;;0.53;0.53;;;20.30;99.90;;;;;;5003145;28;20227;-81
2022/08/26 11:12:46;;;;;;;2.40;0.50;;;20.50;99.90;;;;;;5010803;28;20724;-81
2022/08/26 11:15:18;;;;;;;3.00;0.70;;;20.60;99.90;;;;;;5013789;28;20528;-83
2022/08/26 11:17:47;;;;;;;1.77;0.97;;;20.60;99.90;;;;;;5001754;28;20226;-82
2022/08/26 11:20:22;;;;;;;2.43;0.73;;;20.60;99.90;;;;;;5013333;28;20192;-83
2022/08/26 11:22:53;;;;;;;2.93;1.37;;;20.60;99.90;;;;;;5012991;28;20262;-84
2022/08/26 11:25:27;;;;;;;1.00;0.60;;;20.80;99.90;;;;;;5014582;28;20298;-82
2022/08/26 11:27:58;;;;;;;0.60;0.40;;;20.80;99.90;;;;;;5012863;28;20333;-81
2022/08/26 11:30:24;;;;;;;1.73;0.53;;;21.00;99.90;;;;;;5012914;28;20673;-82
2022/08/26 11:32:56;;;;;;;0.90;0.73;;;20.80;99.90;;;;;;5012188;28;20742;-81
2022/08/26 11:35:24;;;;;;;3.37;1.20;;;20.80;99.90;;;;;;5008756;28;20218;-81
2022/08/26 11:37:53;;;;;;;0.40;0.40;;;20.80;99.90;;;;;;5014459;28;20219;-82
2022/08/26 11:40:30;;;;;;;1.07;0.90;;;20.90;99.90;;;;;;5020343;28;20215;-81
2022/08/26 11:42:59;;;;;;;0.90;0.70;;;20.80;99.90;;;;;;5008127;28;20223;-81
2022/08/26 11:45:46;;;;;;;1.90;0.70;;;20.90;99.90;;;;;;5012527;28;20247;-82
2022/08/26 11:48:15;;;;;;;2.37;0.60;;;20.80;99.90;;;;;;5009192;28;20235;-81
2022/08/26 11:50:52;;;;;;;3.37;0.60;;;20.80;99.90;;;;;;5013075;28;20669;-82
2022/08/26 11:53:18;;;;;;;1.23;0.97;;;20.80;99.90;;;;;;5014318;28;20241;-81
2022/08/26 11:55:45;;;;;;;0.60;0.60;;;20.70;99.90;;;;;;5013805;28;20212;-81
2022/08/26 11:58:12;;;;;;;4.77;0.70;;;20.60;99.90;;;;;;5009564;28;20246;-82
2022/08/26 12:01:02;;;;;;;1.77;1.60;;;20.50;99.90;;;;;;5012934;28;20230;-82
2022/08/26 12:03:47;;;;;;;0.70;0.70;;;20.50;99.90;;;;;;5007327;28;20281;-82
2022/08/26 12:06:21;;;;;;;0.77;0.70;;;20.60;99.90;;;;;;5000046;28;20696;-81
2022/08/26 12:08:47;;;;;;;0.60;0.60;;;20.70;99.90;;;;;;4990461;28;20223;-81
2022/08/26 12:11:39;;;;;;;2.00;0.87;;;21.00;99.90;;;;;;5013597;28;20183;-82
2022/08/26 12:14:20;;;;;;;0.40;0.30;;;21.10;99.90;;;;;;5007603;28;20223;-81
2022/08/26 12:16:46;;;;;;;1.17;0.80;;;20.90;99.90;;;;;;5010844;28;20269;-82
2022/08/26 12:19:31;;;;;;;0.50;0.50;;;20.60;99.90;;;;;;4992460;28;20220;-81
2022/08/26 12:22:13;;;;;;;0.87;0.40;;;20.60;99.90;;;;;;5012797;28;20233;-83
2022/08/26 12:24:59;;;;;;;1.03;0.60;;;20.60;99.90;;;;;;5006293;28;20250;-81
2022/08/26 12:27:33;;;;;;;0.77;0.63;;;20.60;99.90;;;;;;4991641;28;20238;-81
2022/08/26 12:30:21;;;;;;;0.80;0.80;;;20.70;99.90;;;;;;5010501;28;20278;-81
2022/08/26 12:32:50;;;;;;;0.47;0.47;;;20.60;99.90;;;;;;5013336;28;20227;-81
2022/08/26 12:35:18;;;;;;;0.93;0.77;;;20.50;99.90;;;;;;5009500;28;20186;-83
2022/08/26 12:37:47;;;;;;;2.43;0.53;;;20.30;99.90;;;;;;5001317;28;20230;-82
2022/08/26 12:40:33;;;;;;;1.97;0.53;;;20.30;99.90;;;;;;5012868;28;20224;-81
2022/08/26 12:43:02;;;;;;;3.67;0.80;;;20.20;99.90;;;;;;5003056;28;20223;-81
2022/08/26 12:45:53;;;;;;;2.20;0.70;;;20.10;99.90;;;;;;4992869;28;20255;-82
2022/08/26 12:48:30;;;;;;;0.50;0.50;;;20.00;99.90;;;;;;4991563;28;20228;-81
2022/08/26 12:50:57;;;;;;;3.50;0.60;;;20.10;99.90;;;;;;4997527;28;20218;-81
2022/08/26 12:53:26;;;;;;;0.53;0.53;;;20.00;99.90;;;;;;5010314;28;20199;-81
2022/08/26 12:55:59;;;;;;;2.67;1.07;;;20.00;99.90;;;;;;5008485;28;20219;-81
2022/08/26 12:58:36;;;;;;;3.47;1.00;;;19.90;99.90;;;;;;5018142;28;20579;-80
2022/08/26 13:01:05;;;;;;;1.23;0.80;;;20.00;99.90;;;;;;5010081;28;20207;-80
2022/08/26 13:03:34;;;;;;;2.83;0.70;;;20.20;99.90;;;;;;4991335;28;20720;-83
2022/08/26 13:06:19;;;;;;;0.77;0.70;;;20.10;99.90;;;;;;4984282;28;20240;-82
2022/08/26 13:08:59;;;;;;;2.50;1.23;;;20.10;99.90;;;;;;4983056;28;20524;-83